createdAt,value
2022-12-06T00:00:39.684Z,13.80
2022-12-06T00:03:00.983Z,13.67
2022-12-06T00:05:22.319Z,15.23
2022-12-06T00:07:43.768Z,14.17
2022-12-06T00:10:05.830Z,14.37
2022-12-06T00:12:27.728Z,14.03
2022-12-06T00:14:48.738Z,14.23
2022-12-06T00:17:11.362Z,15.60
2022-12-06T00:19:32.666Z,14.77
2022-12-06T00:21:54.324Z,15.33
2022-12-06T00:24:16.197Z,14.47
2022-12-06T00:26:38.411Z,13.67
2022-12-06T00:29:00.157Z,14.33
2022-12-06T00:31:22.625Z,14.87
2022-12-06T00:33:45.703Z,14.60
2022-12-06T00:36:08.235Z,14.67
2022-12-06T00:38:29.589Z,14.07
2022-12-06T00:40:50.670Z,13.57
2022-12-06T00:43:11.814Z,14.33
2022-12-06T00:45:33.081Z,14.10
2022-12-06T00:47:54.341Z,14.97
2022-12-06T00:50:17.039Z,14.30
2022-12-06T00:52:38.318Z,15.50
2022-12-06T00:54:59.506Z,14.33
2022-12-06T00:57:20.740Z,14.17
2022-12-06T00:59:41.938Z,14.03
2022-12-06T01:02:03.321Z,15.83
2022-12-06T01:04:24.450Z,15.33
2022-12-06T01:06:47.033Z,14.00
2022-12-06T01:09:10.206Z,15.13
2022-12-06T01:11:32.149Z,15.00
2022-12-06T01:13:53.891Z,16.17
2022-12-06T01:16:17.242Z,15.97
2022-12-06T01:18:38.351Z,15.60
2022-12-06T01:21:04.051Z,15.97
2022-12-06T01:23:26.431Z,14.47
2022-12-06T01:25:51.266Z,15.40
2022-12-06T01:28:12.428Z,14.77
2022-12-06T01:30:33.734Z,15.30
2022-12-06T01:32:55.204Z,15.07
2022-12-06T01:35:16.534Z,14.80
2022-12-06T01:37:37.829Z,14.93
2022-12-06T01:40:00.833Z,15.40
2022-12-06T01:42:22.563Z,14.77
2022-12-06T01:44:45.321Z,15.23
2022-12-06T01:47:06.939Z,16.30
2022-12-06T01:49:33.234Z,14.73
2022-12-06T01:51:57.423Z,14.73
2022-12-06T01:54:20.065Z,14.67
2022-12-06T01:56:42.944Z,14.43
2022-12-06T01:59:04.143Z,14.37
2022-12-06T02:01:26.729Z,14.53
2022-12-06T02:03:48.995Z,13.90
2022-12-06T02:06:10.291Z,13.97
2022-12-06T02:08:32.619Z,13.90
2022-12-06T02:10:54.283Z,13.37
2022-12-06T02:13:16.956Z,13.40
2022-12-06T02:15:41.514Z,13.30
2022-12-06T02:18:07.046Z,13.03
2022-12-06T02:20:32.917Z,12.93
2022-12-06T02:23:21.902Z,12.13
2022-12-06T02:25:52.683Z,13.17
2022-12-06T02:28:25.617Z,13.37
2022-12-06T02:30:49.561Z,13.60
2022-12-06T02:33:12.334Z,13.20
2022-12-06T02:35:35.425Z,15.10
2022-12-06T02:37:59.686Z,14.03
2022-12-06T02:40:22.093Z,14.97
2022-12-06T02:42:46.808Z,13.53
2022-12-06T02:45:11.071Z,14.30
2022-12-06T02:47:34.750Z,14.33
2022-12-06T02:49:58.067Z,14.17
2022-12-06T02:52:20.606Z,14.27
2022-12-06T02:54:42.252Z,14.60
2022-12-06T02:57:03.529Z,14.47
2022-12-06T02:59:24.789Z,14.67
2022-12-06T03:01:47.936Z,15.27
2022-12-06T03:04:16.046Z,14.90
2022-12-06T03:06:43.762Z,14.00
2022-12-06T03:09:10.313Z,13.90
2022-12-06T03:11:41.823Z,12.90
2022-12-06T03:14:05.500Z,13.37
2022-12-06T03:16:28.102Z,13.03
2022-12-06T03:18:50.717Z,13.17
2022-12-06T03:21:14.748Z,14.13
2022-12-06T03:23:38.211Z,13.40
2022-12-06T03:26:00.617Z,12.97
2022-12-06T03:28:21.732Z,13.90
2022-12-06T03:30:44.810Z,12.83
2022-12-06T03:33:06.134Z,13.43
2022-12-06T03:35:30.063Z,13.97
2022-12-06T03:37:56.777Z,13.47
2022-12-06T03:40:20.000Z,13.57
2022-12-06T03:42:41.186Z,13.07
2022-12-06T03:45:03.686Z,12.43
2022-12-06T03:47:28.529Z,12.37
2022-12-06T03:49:54.266Z,12.80
2022-12-06T03:52:15.557Z,12.83
2022-12-06T03:54:40.769Z,12.83
2022-12-06T03:57:01.803Z,12.23
2022-12-06T03:59:23.040Z,12.80
2022-12-06T04:01:44.572Z,13.60
2022-12-06T04:04:05.992Z,13.57
2022-12-06T04:06:27.255Z,13.23
2022-12-06T04:08:48.058Z,14.20
2022-12-06T04:11:10.687Z,12.43
2022-12-06T04:13:31.277Z,12.43
2022-12-06T04:15:55.876Z,13.23
2022-12-06T04:18:18.634Z,12.53
2022-12-06T04:21:01.370Z,12.57
2022-12-06T04:23:22.454Z,13.30
2022-12-06T04:25:43.542Z,14.33
2022-12-06T04:28:23.603Z,14.90
2022-12-06T04:31:02.589Z,14.50
2022-12-06T04:33:41.505Z,13.90
2022-12-06T04:36:20.360Z,13.33
2022-12-06T04:38:42.044Z,13.23
2022-12-06T04:41:03.167Z,12.27
2022-12-06T04:43:42.854Z,12.13
2022-12-06T04:46:04.223Z,12.27
2022-12-06T04:48:25.297Z,11.97
2022-12-06T04:50:47.996Z,12.07
2022-12-06T04:53:09.124Z,13.00
2022-12-06T04:55:30.358Z,12.57
2022-12-06T04:57:51.529Z,12.13
2022-12-06T05:00:15.085Z,11.57
2022-12-06T05:02:36.251Z,13.37
2022-12-06T05:04:57.519Z,12.47
2022-12-06T05:07:18.803Z,12.77
2022-12-06T05:09:40.160Z,12.40
2022-12-06T05:12:01.322Z,13.27
2022-12-06T05:14:22.588Z,13.07
2022-12-06T05:16:45.069Z,12.63
2022-12-06T05:19:06.481Z,12.90
2022-12-06T05:21:27.677Z,12.30
2022-12-06T05:23:49.125Z,12.70
2022-12-06T05:26:12.191Z,11.03
2022-12-06T05:28:33.616Z,11.30
2022-12-06T05:30:54.748Z,10.63
2022-12-06T05:33:17.555Z,10.43
2022-12-06T05:35:39.878Z,11.07
2022-12-06T05:38:00.801Z,10.60
2022-12-06T05:40:22.217Z,11.67
2022-12-06T05:42:43.469Z,13.97
2022-12-06T05:45:04.931Z,11.73
2022-12-06T05:47:25.811Z,10.83
2022-12-06T05:49:48.410Z,11.20
2022-12-06T05:52:09.757Z,11.03
2022-12-06T05:54:30.950Z,10.33
2022-12-06T05:56:52.128Z,9.63
2022-12-06T05:59:13.623Z,12.10
2022-12-06T06:01:34.826Z,12.97
2022-12-06T06:03:56.119Z,13.23
2022-12-06T06:06:18.734Z,13.17
2022-12-06T06:08:40.253Z,13.70
2022-12-06T06:11:01.593Z,12.90
2022-12-06T06:13:22.882Z,15.10
2022-12-06T06:15:44.319Z,13.03
2022-12-06T06:18:05.779Z,12.90
2022-12-06T06:20:26.795Z,12.90
2022-12-06T06:22:49.405Z,11.90
2022-12-06T06:25:11.148Z,12.53
2022-12-06T06:27:33.941Z,11.37
2022-12-06T06:29:54.924Z,9.73
2022-12-06T06:32:16.243Z,11.20
2022-12-06T06:34:37.299Z,10.80
2022-12-06T06:36:58.454Z,10.90
2022-12-06T06:39:21.362Z,9.03
2022-12-06T06:41:42.769Z,9.60
2022-12-06T06:44:04.585Z,10.43
2022-12-06T06:46:26.064Z,10.03
2022-12-06T06:48:48.054Z,10.17
2022-12-06T06:51:10.758Z,9.13
2022-12-06T06:53:32.015Z,9.63
2022-12-06T06:55:54.975Z,10.83
2022-12-06T06:58:16.157Z,9.40
2022-12-06T07:00:37.649Z,8.77
2022-12-06T07:02:58.663Z,8.73
2022-12-06T07:05:19.788Z,8.87
2022-12-06T07:07:41.029Z,8.63
2022-12-06T07:10:02.650Z,9.63
2022-12-06T07:12:25.197Z,9.30
2022-12-06T07:14:46.507Z,9.13
2022-12-06T07:17:07.975Z,8.50
2022-12-06T07:19:29.134Z,9.47
2022-12-06T07:21:50.951Z,8.00
2022-12-06T07:24:11.980Z,8.23
2022-12-06T07:26:33.153Z,8.20
2022-12-06T07:28:57.659Z,8.73
2022-12-06T07:31:19.411Z,8.37
2022-12-06T07:33:40.665Z,8.90
2022-12-06T07:36:12.167Z,8.83
2022-12-06T07:38:34.059Z,8.00
2022-12-06T07:41:04.348Z,8.23
2022-12-06T07:43:44.050Z,8.43
2022-12-06T07:46:10.844Z,7.80
2022-12-06T07:48:32.229Z,8.40
2022-12-06T07:50:53.487Z,8.57
2022-12-06T07:53:14.673Z,8.47
2022-12-06T07:55:35.904Z,8.17
2022-12-06T07:57:57.113Z,7.77
2022-12-06T08:00:18.616Z,7.70
2022-12-06T08:02:41.302Z,7.50
2022-12-06T08:05:02.289Z,7.93
2022-12-06T08:07:24.122Z,7.57
2022-12-06T08:09:45.638Z,7.50
2022-12-06T08:12:06.980Z,7.83
2022-12-06T08:14:28.372Z,7.87
2022-12-06T08:16:49.624Z,7.83
2022-12-06T08:19:12.248Z,7.60
2022-12-06T08:21:33.597Z,7.80
2022-12-06T08:23:55.255Z,7.53
2022-12-06T08:26:18.662Z,7.70
2022-12-06T08:28:40.267Z,7.97
2022-12-06T08:31:03.329Z,7.70
2022-12-06T08:33:24.546Z,7.50
2022-12-06T08:35:47.197Z,7.20
2022-12-06T08:38:08.476Z,7.97
2022-12-06T08:40:29.826Z,7.40
2022-12-06T08:42:51.110Z,8.03
2022-12-06T08:45:12.336Z,7.93
2022-12-06T08:47:33.582Z,7.70
2022-12-06T08:49:54.795Z,8.37
2022-12-06T08:52:17.715Z,8.43
2022-12-06T08:54:40.229Z,9.07
2022-12-06T08:57:01.155Z,9.07
2022-12-06T08:59:23.069Z,9.73
2022-12-06T09:01:44.253Z,11.10
2022-12-06T09:04:06.970Z,9.47
2022-12-06T09:06:28.535Z,8.43
2022-12-06T09:08:51.319Z,8.60
2022-12-06T09:11:12.330Z,9.03
2022-12-06T09:13:34.006Z,8.60
2022-12-06T09:15:55.106Z,8.50
2022-12-06T09:18:16.265Z,7.30
2022-12-06T09:20:40.330Z,8.63
2022-12-06T09:23:01.283Z,8.00
2022-12-06T09:25:23.824Z,8.23
2022-12-06T09:27:45.069Z,7.93
2022-12-06T09:30:06.966Z,7.80
2022-12-06T09:32:28.307Z,7.87
2022-12-06T09:34:49.550Z,7.53
2022-12-06T09:37:12.891Z,8.37
2022-12-06T09:39:35.729Z,8.33
2022-12-06T09:42:07.887Z,8.43
2022-12-06T09:44:36.091Z,7.90
2022-12-06T09:47:02.686Z,7.30
2022-12-06T09:49:30.250Z,6.87
2022-12-06T09:51:59.735Z,7.33
2022-12-06T09:54:24.750Z,8.03
2022-12-06T09:56:48.576Z,8.17
2022-12-06T09:59:15.813Z,7.83
2022-12-06T10:01:43.380Z,7.70
2022-12-06T10:04:17.266Z,7.40
2022-12-06T10:06:41.388Z,7.27
2022-12-06T10:09:15.636Z,8.60
2022-12-06T10:11:44.482Z,7.40
2022-12-06T10:14:10.460Z,7.57
2022-12-06T10:16:38.557Z,8.30
2022-12-06T10:19:06.244Z,8.30
2022-12-06T10:21:33.706Z,8.70
2022-12-06T10:24:02.426Z,8.63
2022-12-06T10:26:27.690Z,8.70
2022-12-06T10:28:54.291Z,8.67
2022-12-06T10:31:21.519Z,8.93
2022-12-06T10:33:51.262Z,8.40
2022-12-06T10:36:16.857Z,7.43
2022-12-06T10:38:40.738Z,8.33
2022-12-06T10:41:06.198Z,8.50
2022-12-06T10:43:30.631Z,16.83
2022-12-06T10:46:14.220Z,9.60
2022-12-06T10:48:37.697Z,8.30
2022-12-06T10:51:04.386Z,7.80
2022-12-06T10:53:29.156Z,8.50
2022-12-06T10:55:53.004Z,8.30
2022-12-06T10:58:18.232Z,8.10
2022-12-06T11:00:42.874Z,8.17
2022-12-06T11:03:06.743Z,9.30
2022-12-06T11:05:29.274Z,9.17
2022-12-06T11:07:53.614Z,9.33
2022-12-06T11:10:16.672Z,9.67
2022-12-06T11:12:39.832Z,8.53
2022-12-06T11:15:04.139Z,8.93
2022-12-06T11:17:27.468Z,9.03
2022-12-06T11:19:50.968Z,9.10
2022-12-06T11:22:15.257Z,9.83
2022-12-06T11:24:44.573Z,9.73
2022-12-06T11:27:13.477Z,8.90
2022-12-06T11:29:34.786Z,9.50
2022-12-06T11:31:56.996Z,10.83
2022-12-06T11:34:20.063Z,10.07
2022-12-06T11:36:41.618Z,10.10
2022-12-06T11:39:02.858Z,8.57
2022-12-06T11:41:27.471Z,8.13
2022-12-06T11:43:48.732Z,8.20
2022-12-06T11:46:12.079Z,9.00
2022-12-06T11:48:34.503Z,9.73
2022-12-06T11:50:55.670Z,9.57
2022-12-06T11:53:20.136Z,9.83
2022-12-06T11:55:43.154Z,8.60
2022-12-06T11:58:08.246Z,9.13
2022-12-06T12:00:31.197Z,9.40
2022-12-06T12:02:54.142Z,9.33
2022-12-06T12:05:20.519Z,9.00
2022-12-06T12:07:42.300Z,8.50
2022-12-06T12:10:23.587Z,7.63
2022-12-06T12:13:04.609Z,8.23
2022-12-06T12:15:28.057Z,9.33
2022-12-06T12:17:51.319Z,8.87
2022-12-06T12:20:21.242Z,9.30
2022-12-06T12:22:43.871Z,9.43
2022-12-06T12:25:22.447Z,9.60
2022-12-06T12:27:45.663Z,9.07
2022-12-06T12:30:28.444Z,9.50
2022-12-06T12:32:50.846Z,9.67
2022-12-06T12:35:25.812Z,9.43
2022-12-06T12:37:47.283Z,9.43
2022-12-06T12:40:21.892Z,10.53
2022-12-06T12:42:43.203Z,12.20
2022-12-06T12:45:05.610Z,12.70
2022-12-06T12:47:28.138Z,11.03
2022-12-06T12:49:59.422Z,11.10
2022-12-06T12:52:28.283Z,10.83
2022-12-06T12:54:59.471Z,11.37
2022-12-06T12:57:21.057Z,10.60
2022-12-06T12:59:42.736Z,11.20
2022-12-06T13:02:06.633Z,9.10
2022-12-06T13:04:36.646Z,10.27
2022-12-06T13:07:00.346Z,8.63
2022-12-06T13:09:25.214Z,9.13
2022-12-06T13:11:49.556Z,8.60
2022-12-06T13:14:16.694Z,8.83
2022-12-06T13:16:38.042Z,8.37
2022-12-06T13:18:59.722Z,8.20
2022-12-06T13:21:23.332Z,8.33
2022-12-06T13:23:45.753Z,8.60
2022-12-06T13:26:10.297Z,8.07
2022-12-06T13:28:33.968Z,9.53
2022-12-06T13:30:57.206Z,7.30
2022-12-06T13:33:21.339Z,6.80
2022-12-06T13:35:45.881Z,8.13
2022-12-06T13:40:48.425Z,6.97
2022-12-06T13:43:40.359Z,7.27
2022-12-06T13:46:16.531Z,6.70
2022-12-06T13:48:39.383Z,7.37
2022-12-06T13:51:01.794Z,6.80
2022-12-06T13:53:23.616Z,6.23
2022-12-06T13:55:59.134Z,6.63
2022-12-06T13:58:43.808Z,6.03
2022-12-06T14:01:05.225Z,6.03
2022-12-06T14:03:41.694Z,6.30
2022-12-06T14:06:12.201Z,6.23
2022-12-06T14:08:36.922Z,5.73
2022-12-06T14:11:07.201Z,6.53
2022-12-06T14:13:28.266Z,6.67
2022-12-06T14:15:50.746Z,5.93
2022-12-06T14:18:18.131Z,6.03
2022-12-06T14:20:42.392Z,5.73
2022-12-06T14:23:03.427Z,4.83
2022-12-06T14:25:26.872Z,4.97
2022-12-06T14:27:50.474Z,5.27
2022-12-06T14:30:22.074Z,5.50
2022-12-06T14:32:47.614Z,5.40
2022-12-06T14:35:13.054Z,4.50
2022-12-06T14:37:34.538Z,5.90
2022-12-06T14:39:55.441Z,5.33
2022-12-06T14:42:35.154Z,5.37
2022-12-06T14:45:02.282Z,5.67
2022-12-06T14:47:24.184Z,6.00
2022-12-06T14:50:03.085Z,6.10
2022-12-06T14:52:25.833Z,6.03
2022-12-06T14:54:47.078Z,5.93
2022-12-06T14:57:19.153Z,6.03
2022-12-06T15:00:13.952Z,6.03
2022-12-06T15:02:27.520Z,6.30
2022-12-06T15:04:48.702Z,5.53
2022-12-06T15:07:29.562Z,6.97
2022-12-06T15:09:50.797Z,9.20
2022-12-06T15:12:38.256Z,7.50
2022-12-06T15:15:00.014Z,7.93
2022-12-06T15:17:22.792Z,7.07
2022-12-06T15:19:47.413Z,7.80
2022-12-06T15:22:15.547Z,7.03
2022-12-06T15:24:38.635Z,9.47
2022-12-06T15:27:00.200Z,9.30
2022-12-06T15:29:21.477Z,6.33
2022-12-06T15:31:43.609Z,9.00
2022-12-06T15:34:14.315Z,9.03
2022-12-06T15:36:36.777Z,8.57
2022-12-06T15:38:58.286Z,7.43
2022-12-06T15:41:20.195Z,6.50
2022-12-06T15:43:41.408Z,8.27
2022-12-06T15:46:04.024Z,7.13
2022-12-06T15:48:25.437Z,7.10
2022-12-06T15:50:46.982Z,7.30
2022-12-06T15:53:10.847Z,8.20
2022-12-06T15:55:32.492Z,9.33
2022-12-06T15:57:55.052Z,7.00
2022-12-06T16:00:17.136Z,10.50
2022-12-06T16:02:39.198Z,8.40
2022-12-06T16:05:01.035Z,7.37
2022-12-06T16:07:24.256Z,8.20
2022-12-06T16:09:47.253Z,10.67
2022-12-06T16:12:08.519Z,10.33
2022-12-06T16:14:29.621Z,38.73
2022-12-06T16:16:51.039Z,8.03
2022-12-06T16:19:12.694Z,7.70
2022-12-06T16:21:34.813Z,8.27
2022-12-06T16:24:12.990Z,9.10
2022-12-06T16:26:37.687Z,7.50
2022-12-06T16:28:59.402Z,7.63
2022-12-06T16:31:20.700Z,8.63
2022-12-06T16:33:41.884Z,11.13
2022-12-06T16:36:10.589Z,9.70
2022-12-06T16:38:31.926Z,10.50
2022-12-06T16:40:53.386Z,12.00
2022-12-06T16:43:15.874Z,9.83
2022-12-06T16:45:38.322Z,9.97
2022-12-06T16:47:59.323Z,10.13
2022-12-06T16:50:22.448Z,9.97
2022-12-06T16:52:43.249Z,10.03
2022-12-06T16:55:04.706Z,9.10
2022-12-06T16:57:26.256Z,8.27
2022-12-06T16:59:48.841Z,9.20
2022-12-06T17:02:19.726Z,8.73
2022-12-06T17:04:42.734Z,9.00
2022-12-06T17:07:03.666Z,8.83
2022-12-06T17:09:24.851Z,9.40
2022-12-06T17:11:59.824Z,9.23
2022-12-06T17:14:22.336Z,8.47
2022-12-06T17:16:45.283Z,9.93
2022-12-06T17:19:07.712Z,11.37
2022-12-06T17:21:29.168Z,9.43
2022-12-06T17:23:50.425Z,8.70
2022-12-06T17:26:11.428Z,9.23
2022-12-06T17:28:32.694Z,7.87
2022-12-06T17:30:54.009Z,8.00
2022-12-06T17:33:16.655Z,8.77
2022-12-06T17:35:37.793Z,8.03
2022-12-06T17:38:00.434Z,8.40
2022-12-06T17:40:21.840Z,9.27
2022-12-06T17:43:00.224Z,8.57
2022-12-06T17:45:24.797Z,8.00
2022-12-06T17:47:46.393Z,8.10
2022-12-06T17:50:10.131Z,8.13
2022-12-06T17:52:31.217Z,7.87
2022-12-06T17:54:52.242Z,8.50
2022-12-06T17:57:16.236Z,8.00
2022-12-06T17:59:37.166Z,8.17
2022-12-06T18:02:16.478Z,7.80
2022-12-06T18:04:38.673Z,8.27
2022-12-06T18:07:01.439Z,8.70
2022-12-06T18:09:22.809Z,9.47
2022-12-06T18:11:44.203Z,8.97
2022-12-06T18:14:05.750Z,7.83
2022-12-06T18:16:27.927Z,10.20
2022-12-06T18:18:49.751Z,9.33
2022-12-06T18:21:11.623Z,10.07
2022-12-06T18:23:34.000Z,9.23
2022-12-06T18:25:55.396Z,9.70
2022-12-06T18:28:16.647Z,8.83
2022-12-06T18:30:37.849Z,8.47
2022-12-06T18:33:01.039Z,8.63
2022-12-06T18:35:22.388Z,9.37
2022-12-06T18:37:43.432Z,8.20
2022-12-06T18:40:07.005Z,7.03
2022-12-06T18:42:28.657Z,6.97
2022-12-06T18:44:54.985Z,7.80
2022-12-06T18:47:18.738Z,10.50
2022-12-06T18:49:40.205Z,13.93
2022-12-06T18:52:01.808Z,14.83
2022-12-06T18:54:22.947Z,12.93
2022-12-06T18:56:45.532Z,9.80
2022-12-06T18:59:07.529Z,13.80
2022-12-06T19:01:29.891Z,9.53
2022-12-06T19:03:51.671Z,13.37
2022-12-06T19:06:13.736Z,11.30
2022-12-06T19:08:35.068Z,9.70
2022-12-06T19:11:01.306Z,11.60
2022-12-06T19:13:24.188Z,13.70
2022-12-06T19:15:45.353Z,11.10
2022-12-06T19:18:06.850Z,8.47
2022-12-06T19:20:27.905Z,8.37
2022-12-06T19:22:49.260Z,10.90
2022-12-06T19:25:11.770Z,11.50
2022-12-06T19:27:32.914Z,9.00
2022-12-06T19:29:55.484Z,17.53
2022-12-06T19:32:16.889Z,9.70
2022-12-06T19:34:38.161Z,10.50
2022-12-06T19:36:59.404Z,13.50
2022-12-06T19:39:20.771Z,11.47
2022-12-06T19:41:56.021Z,9.33
2022-12-06T19:44:17.358Z,10.07
2022-12-06T19:46:42.536Z,9.80
2022-12-06T19:49:05.472Z,10.60
2022-12-06T19:51:29.007Z,11.13
2022-12-06T19:53:50.241Z,12.20
2022-12-06T19:56:12.597Z,16.23
2022-12-06T19:58:34.193Z,13.90
2022-12-06T20:00:55.557Z,10.67
2022-12-06T20:03:18.242Z,13.70
2022-12-06T20:05:39.150Z,10.87
2022-12-06T20:08:00.352Z,10.17
2022-12-06T20:10:21.443Z,10.00
2022-12-06T20:12:42.660Z,10.33
2022-12-06T20:15:03.835Z,9.17
2022-12-06T20:17:25.091Z,9.50
2022-12-06T20:19:48.968Z,9.47
2022-12-06T20:22:10.545Z,9.67
2022-12-06T20:24:32.500Z,9.23
2022-12-06T20:26:54.752Z,9.20
2022-12-06T20:29:15.953Z,9.43
2022-12-06T20:31:37.172Z,8.63
2022-12-06T20:33:58.607Z,8.97
2022-12-06T20:36:21.610Z,8.23
2022-12-06T20:38:42.611Z,8.43
2022-12-06T20:41:07.649Z,8.73
2022-12-06T20:43:28.598Z,7.83
2022-12-06T20:45:49.855Z,7.93
2022-12-06T20:48:11.205Z,7.67
2022-12-06T20:50:32.436Z,9.00
2022-12-06T20:52:55.126Z,8.37
2022-12-06T20:55:16.858Z,8.67
2022-12-06T20:57:38.480Z,9.03
2022-12-06T21:00:05.268Z,7.93
2022-12-06T21:02:28.060Z,9.10
2022-12-06T21:04:49.195Z,8.17
2022-12-06T21:07:10.461Z,8.40
2022-12-06T21:09:33.209Z,8.30
2022-12-06T21:11:54.214Z,8.33
2022-12-06T21:14:16.497Z,8.43
2022-12-06T21:16:38.151Z,8.13
2022-12-06T21:19:00.651Z,8.60
2022-12-06T21:21:22.332Z,8.03
2022-12-06T21:23:43.608Z,10.03
2022-12-06T21:26:06.594Z,10.87
2022-12-06T21:28:27.827Z,10.97
2022-12-06T21:30:50.248Z,8.53
2022-12-06T21:33:11.436Z,10.33
2022-12-06T21:35:34.949Z,11.03
2022-12-06T21:37:56.413Z,9.30
2022-12-06T21:40:17.792Z,8.13
2022-12-06T21:42:40.599Z,8.33
2022-12-06T21:45:01.877Z,8.07
2022-12-06T21:47:23.201Z,7.77
2022-12-06T21:49:44.499Z,8.40
2022-12-06T21:52:09.135Z,8.10
2022-12-06T21:54:30.493Z,8.63
2022-12-06T21:56:51.699Z,8.80
2022-12-06T21:59:14.359Z,8.70
2022-12-06T22:01:35.592Z,8.30
2022-12-06T22:03:57.834Z,8.00
2022-12-06T22:06:19.379Z,9.13
2022-12-06T22:08:40.963Z,8.37
2022-12-06T22:11:02.516Z,8.20
2022-12-06T22:13:23.799Z,7.87
2022-12-06T22:15:46.408Z,7.93
2022-12-06T22:18:07.746Z,8.40
2022-12-06T22:20:29.042Z,8.57
2022-12-06T22:22:50.909Z,8.17
2022-12-06T22:25:16.439Z,8.60
2022-12-06T22:27:40.522Z,8.47
2022-12-06T22:30:02.246Z,8.50
2022-12-06T22:32:25.197Z,8.23
2022-12-06T22:34:47.104Z,8.80
2022-12-06T22:37:08.386Z,8.77
2022-12-06T22:39:29.774Z,9.13
2022-12-06T22:41:50.979Z,8.50
2022-12-06T22:44:12.349Z,8.80
2022-12-06T22:46:33.861Z,9.87
2022-12-06T22:48:57.417Z,8.57
2022-12-06T22:51:21.473Z,8.50
2022-12-06T22:53:43.673Z,8.60
2022-12-06T22:56:05.039Z,8.40
2022-12-06T22:58:26.360Z,8.20
2022-12-06T23:00:47.802Z,7.47
2022-12-06T23:03:09.133Z,8.37
2022-12-06T23:05:31.777Z,7.90
2022-12-06T23:07:53.175Z,8.00
2022-12-06T23:10:14.521Z,8.17
2022-12-06T23:12:37.225Z,7.70
2022-12-06T23:14:58.561Z,7.47
2022-12-06T23:17:19.803Z,7.97
2022-12-06T23:19:40.932Z,7.90
2022-12-06T23:22:03.514Z,7.77
2022-12-06T23:24:24.855Z,7.80
2022-12-06T23:26:49.766Z,7.50
2022-12-06T23:29:13.527Z,7.50
2022-12-06T23:31:36.213Z,7.97
2022-12-06T23:33:58.709Z,7.97
2022-12-06T23:36:21.423Z,7.70
2022-12-06T23:38:43.865Z,7.90
2022-12-06T23:41:05.996Z,8.47
2022-12-06T23:43:27.251Z,7.67
2022-12-06T23:45:58.462Z,8.73
2022-12-06T23:48:21.391Z,7.50
2022-12-06T23:50:43.583Z,8.17
2022-12-06T23:53:04.891Z,8.30
2022-12-06T23:55:27.616Z,7.93
2022-12-06T23:57:48.731Z,7.80
